createdAt,value
2018-09-26T00:01:31.971Z,12.20
2018-09-26T00:04:07.950Z,12.10
2018-09-26T00:06:39.759Z,12.10
2018-09-26T00:09:12.106Z,12.00
2018-09-26T00:11:42.345Z,12.00
2018-09-26T00:14:13.271Z,12.00
2018-09-26T00:16:44.823Z,12.00
2018-09-26T00:19:16.042Z,12.10
2018-09-26T00:21:46.887Z,12.10
2018-09-26T00:24:18.925Z,12.10
2018-09-26T00:26:49.648Z,12.00
2018-09-26T00:29:21.502Z,12.00
2018-09-26T00:31:51.588Z,12.00
2018-09-26T00:34:22.975Z,12.00
2018-09-26T00:36:53.099Z,12.00
2018-09-26T00:39:23.016Z,12.00
2018-09-26T00:41:52.856Z,11.90
2018-09-26T00:44:23.178Z,11.90
2018-09-26T00:46:53.925Z,11.90
2018-09-26T00:49:24.214Z,11.90
2018-09-26T00:51:54.072Z,11.80
2018-09-26T00:54:24.808Z,11.80
2018-09-26T00:56:54.872Z,11.80
2018-09-26T00:59:24.994Z,11.80
2018-09-26T01:01:55.589Z,11.80
2018-09-26T01:04:27.749Z,11.80
2018-09-26T01:06:59.873Z,11.80
2018-09-26T01:09:30.957Z,11.70
2018-09-26T01:12:04.965Z,11.70
2018-09-26T01:14:36.784Z,11.70
2018-09-26T01:17:06.839Z,11.70
2018-09-26T01:19:37.875Z,11.60
2018-09-26T01:22:08.355Z,11.60
2018-09-26T01:24:38.367Z,11.60
2018-09-26T01:27:09.072Z,11.60
2018-09-26T01:29:39.596Z,11.60
2018-09-26T01:32:10.060Z,11.50
2018-09-26T01:34:40.355Z,11.50
2018-09-26T01:37:10.549Z,11.50
2018-09-26T01:39:41.330Z,11.50
2018-09-26T01:42:11.638Z,11.50
2018-09-26T01:44:41.763Z,11.50
2018-09-26T01:47:12.591Z,11.50
2018-09-26T01:49:43.688Z,11.50
2018-09-26T01:52:14.013Z,11.40
2018-09-26T01:54:44.279Z,11.40
2018-09-26T01:57:15.937Z,11.40
2018-09-26T01:59:47.200Z,11.40
2018-09-26T02:02:22.688Z,11.40
2018-09-26T02:04:52.904Z,11.40
2018-09-26T02:07:23.273Z,11.40
2018-09-26T02:09:54.471Z,11.40
2018-09-26T02:12:24.842Z,11.30
2018-09-26T02:14:54.977Z,11.30
2018-09-26T02:17:25.425Z,11.30
2018-09-26T02:19:57.175Z,11.30
2018-09-26T02:22:27.747Z,11.30
2018-09-26T02:24:58.510Z,11.30
2018-09-26T02:27:29.957Z,11.20
2018-09-26T02:30:03.867Z,11.20
2018-09-26T02:32:35.995Z,11.20
2018-09-26T02:35:07.381Z,11.20
2018-09-26T02:37:37.766Z,11.20
2018-09-26T02:40:08.396Z,11.20
2018-09-26T02:42:39.711Z,11.20
2018-09-26T02:45:12.137Z,11.20
2018-09-26T02:47:42.414Z,11.20
2018-09-26T02:50:13.416Z,11.20
2018-09-26T02:52:43.922Z,11.10
2018-09-26T02:55:14.752Z,11.10
2018-09-26T02:57:46.007Z,11.10
2018-09-26T03:00:17.508Z,11.10
2018-09-26T03:02:49.356Z,11.10
2018-09-26T03:05:19.781Z,11.10
2018-09-26T03:07:50.715Z,11.10
2018-09-26T03:10:20.980Z,11.10
2018-09-26T03:12:51.216Z,11.10
2018-09-26T03:15:21.491Z,11.10
2018-09-26T03:17:51.609Z,11.10
2018-09-26T03:20:23.757Z,11.00
2018-09-26T03:22:55.069Z,11.00
2018-09-26T03:25:27.615Z,11.00
2018-09-26T03:27:57.838Z,11.00
2018-09-26T03:30:29.077Z,11.00
2018-09-26T03:33:01.375Z,11.00
2018-09-26T03:35:31.683Z,10.90
2018-09-26T03:38:02.432Z,10.90
2018-09-26T03:40:34.348Z,10.90
2018-09-26T03:43:07.163Z,10.90
2018-09-26T03:45:38.215Z,10.90
2018-09-26T03:48:08.473Z,10.90
2018-09-26T03:50:38.848Z,10.90
2018-09-26T03:53:09.312Z,10.90
2018-09-26T03:55:39.907Z,10.90
2018-09-26T03:58:10.381Z,10.90
2018-09-26T04:00:41.574Z,10.90
2018-09-26T04:03:19.706Z,10.80
2018-09-26T04:05:53.376Z,10.80
2018-09-26T04:08:34.263Z,10.80
2018-09-26T04:11:08.114Z,10.80
2018-09-26T04:13:38.172Z,10.80
2018-09-26T04:16:09.860Z,10.80
2018-09-26T04:18:41.171Z,10.70
2018-09-26T04:21:11.090Z,10.70
2018-09-26T04:23:41.715Z,10.70
2018-09-26T04:26:13.038Z,10.70
2018-09-26T04:28:43.212Z,10.70
2018-09-26T04:31:15.295Z,10.70
2018-09-26T04:33:47.335Z,10.70
2018-09-26T04:36:18.795Z,10.60
2018-09-26T04:38:50.539Z,10.60
2018-09-26T04:41:21.879Z,10.60
2018-09-26T04:43:52.250Z,10.60
2018-09-26T04:46:22.687Z,10.60
2018-09-26T04:48:52.995Z,10.50
2018-09-26T04:51:22.922Z,10.50
2018-09-26T04:53:53.982Z,10.50
2018-09-26T04:56:25.411Z,10.50
2018-09-26T04:58:58.895Z,10.50
2018-09-26T05:01:29.196Z,10.50
2018-09-26T05:04:04.817Z,10.50
2018-09-26T05:06:36.688Z,10.50
2018-09-26T05:09:09.365Z,10.50
2018-09-26T05:11:39.793Z,10.40
2018-09-26T05:14:27.097Z,10.40
2018-09-26T05:16:59.359Z,10.40
2018-09-26T05:19:31.091Z,10.40
2018-09-26T05:22:04.082Z,10.40
2018-09-26T05:24:35.743Z,10.40
2018-09-26T05:27:06.166Z,10.50
2018-09-26T05:29:47.083Z,10.40
2018-09-26T05:32:23.124Z,10.40
2018-09-26T05:34:53.418Z,10.40
2018-09-26T05:37:23.400Z,10.40
2018-09-26T05:39:55.761Z,10.40
2018-09-26T05:42:26.136Z,10.40
2018-09-26T05:44:56.579Z,10.40
2018-09-26T05:47:28.342Z,10.40
2018-09-26T05:49:59.455Z,10.40
2018-09-26T05:52:35.862Z,10.40
2018-09-26T05:55:09.326Z,10.40
2018-09-26T05:57:46.253Z,10.40
2018-09-26T06:00:19.198Z,10.50
2018-09-26T06:02:50.183Z,10.40
2018-09-26T06:05:20.972Z,10.40
2018-09-26T06:07:51.231Z,10.50
2018-09-26T06:10:22.151Z,10.50
2018-09-26T06:12:54.753Z,10.50
2018-09-26T06:15:25.572Z,10.50
2018-09-26T06:17:56.912Z,10.50
2018-09-26T06:20:27.835Z,10.50
2018-09-26T06:22:57.788Z,10.50
2018-09-26T06:25:28.092Z,10.50
2018-09-26T06:28:00.199Z,10.50
2018-09-26T06:30:30.553Z,10.50
2018-09-26T06:33:05.507Z,10.60
2018-09-26T06:35:36.626Z,10.60
2018-09-26T06:38:07.096Z,10.60
2018-09-26T06:40:37.386Z,10.50
2018-09-26T06:43:08.835Z,10.50
2018-09-26T06:45:39.145Z,10.50
2018-09-26T06:48:14.672Z,10.50
2018-09-26T06:50:45.542Z,10.60
2018-09-26T06:53:16.788Z,10.60
2018-09-26T06:55:48.112Z,10.60
2018-09-26T06:58:19.194Z,10.70
2018-09-26T07:00:50.027Z,10.70
2018-09-26T07:03:27.794Z,10.70
2018-09-26T07:05:59.130Z,10.80
2018-09-26T07:08:29.810Z,10.80
2018-09-26T07:11:03.243Z,10.80
2018-09-26T07:13:34.137Z,10.90
2018-09-26T07:16:04.637Z,10.90
2018-09-26T07:18:40.988Z,10.90
2018-09-26T07:21:12.073Z,10.90
2018-09-26T07:23:43.967Z,10.90
2018-09-26T07:26:15.111Z,11.00
2018-09-26T07:28:44.859Z,11.00
2018-09-26T07:31:14.656Z,11.00
2018-09-26T07:33:45.656Z,11.00
2018-09-26T07:36:33.502Z,11.10
2018-09-26T07:39:04.057Z,11.10
2018-09-26T07:41:34.250Z,11.10
2018-09-26T07:44:11.755Z,11.10
2018-09-26T07:46:43.248Z,11.10
2018-09-26T07:49:15.337Z,11.20
2018-09-26T07:51:47.327Z,11.20
2018-09-26T07:54:18.558Z,11.20
2018-09-26T07:56:50.824Z,11.20
2018-09-26T07:59:21.815Z,11.30
2018-09-26T08:01:52.702Z,11.30
2018-09-26T08:04:22.831Z,11.30
2018-09-26T08:06:54.465Z,11.30
2018-09-26T08:09:25.424Z,11.30
2018-09-26T08:11:57.275Z,11.30
2018-09-26T08:14:27.875Z,11.40
2018-09-26T08:16:59.817Z,11.40
2018-09-26T08:19:36.152Z,11.40
2018-09-26T08:22:06.869Z,11.50
2018-09-26T08:24:38.807Z,11.50
2018-09-26T08:27:09.279Z,11.50
2018-09-26T08:29:39.763Z,11.50
2018-09-26T08:32:10.932Z,11.50
2018-09-26T08:34:46.635Z,11.50
2018-09-26T08:37:20.092Z,11.60
2018-09-26T08:39:50.570Z,11.60
2018-09-26T08:42:21.752Z,11.60
2018-09-26T08:44:52.738Z,11.60
2018-09-26T08:47:24.789Z,11.70
2018-09-26T08:49:54.929Z,11.70
2018-09-26T08:52:26.597Z,11.80
2018-09-26T08:54:58.258Z,11.80
2018-09-26T08:57:30.195Z,11.80
2018-09-26T09:00:00.283Z,11.90
2018-09-26T09:02:31.434Z,11.90
2018-09-26T09:05:05.631Z,11.90
2018-09-26T09:07:36.097Z,12.00
2018-09-26T09:10:06.715Z,12.00
2018-09-26T09:12:37.047Z,12.00
2018-09-26T09:15:10.632Z,12.00
2018-09-26T09:17:48.438Z,12.10
2018-09-26T09:20:24.985Z,12.10
2018-09-26T09:22:56.864Z,12.10
2018-09-26T09:25:29.855Z,12.10
2018-09-26T09:28:03.119Z,12.20
2018-09-26T09:30:33.218Z,12.20
2018-09-26T09:33:17.693Z,12.20
2018-09-26T09:35:48.864Z,12.20
2018-09-26T09:38:19.111Z,12.30
2018-09-26T09:40:49.386Z,12.30
2018-09-26T09:43:21.453Z,12.30
2018-09-26T09:45:52.825Z,12.30
2018-09-26T09:48:32.940Z,12.30
2018-09-26T09:51:03.866Z,12.40
2018-09-26T09:53:36.525Z,12.40
2018-09-26T09:56:10.175Z,12.50
2018-09-26T09:58:43.432Z,12.50
2018-09-26T10:01:19.360Z,12.60
2018-09-26T10:03:49.497Z,12.60
2018-09-26T10:06:20.640Z,12.60
2018-09-26T10:08:51.995Z,12.60
2018-09-26T10:11:22.185Z,12.70
2018-09-26T10:13:54.295Z,12.70
2018-09-26T10:16:24.838Z,12.80
2018-09-26T10:18:56.940Z,12.80
2018-09-26T10:21:29.421Z,12.90
2018-09-26T10:24:03.524Z,12.90
2018-09-26T10:26:44.644Z,12.90
2018-09-26T10:29:18.505Z,13.00
2018-09-26T10:31:53.903Z,13.00
2018-09-26T10:34:24.778Z,13.00
2018-09-26T10:39:32.941Z,13.10
2018-09-26T10:42:03.480Z,13.10
2018-09-26T10:44:35.460Z,13.10
2018-09-26T10:47:05.870Z,13.20
2018-09-26T10:49:36.721Z,13.30
2018-09-26T10:52:07.990Z,13.30
2018-09-26T10:54:38.338Z,13.30
2018-09-26T10:57:09.481Z,13.40
2018-09-26T10:59:41.889Z,13.40
2018-09-26T11:02:20.317Z,13.40
2018-09-26T11:04:51.840Z,13.40
2018-09-26T11:07:22.628Z,13.50
2018-09-26T11:09:53.813Z,13.60
2018-09-26T11:12:25.499Z,13.80
2018-09-26T11:14:57.764Z,13.80
2018-09-26T11:17:41.567Z,13.80
2018-09-26T11:20:17.261Z,13.80
2018-09-26T11:22:50.348Z,13.80
2018-09-26T11:25:20.785Z,13.80
2018-09-26T11:27:52.436Z,13.90
2018-09-26T11:30:22.764Z,14.00
2018-09-26T11:32:53.205Z,14.00
2018-09-26T11:35:24.399Z,14.10
2018-09-26T11:37:57.125Z,14.30
2018-09-26T11:40:27.590Z,14.30
2018-09-26T11:42:58.919Z,14.40
2018-09-26T11:45:31.022Z,14.40
2018-09-26T11:48:03.935Z,14.40
2018-09-26T11:50:37.245Z,14.50
2018-09-26T11:53:12.670Z,14.50
2018-09-26T11:55:43.743Z,14.50
2018-09-26T11:58:14.334Z,14.50
2018-09-26T12:00:45.744Z,14.40
2018-09-26T12:03:15.947Z,14.50
2018-09-26T12:05:47.859Z,14.50
2018-09-26T12:08:20.878Z,14.60
2018-09-26T12:10:51.808Z,14.60
2018-09-26T12:13:24.057Z,14.60
2018-09-26T12:15:54.532Z,14.60
2018-09-26T12:18:32.239Z,14.60
2018-09-26T12:21:02.698Z,14.60
2018-09-26T12:23:34.655Z,14.70
2018-09-26T12:26:05.005Z,14.70
2018-09-26T12:28:35.260Z,14.80
2018-09-26T12:31:08.562Z,14.80
2018-09-26T12:33:38.715Z,14.80
2018-09-26T12:36:09.171Z,15.00
2018-09-26T12:38:41.172Z,15.10
2018-09-26T12:41:16.249Z,15.20
2018-09-26T12:43:46.846Z,15.20
2018-09-26T12:46:19.590Z,15.20
2018-09-26T12:48:49.911Z,15.20
2018-09-26T12:51:19.993Z,15.20
2018-09-26T12:53:51.468Z,15.30
2018-09-26T12:56:22.914Z,15.50
2018-09-26T12:58:53.462Z,15.70
2018-09-26T13:01:24.994Z,15.90
2018-09-26T13:03:57.445Z,16.10
2018-09-26T13:06:27.874Z,16.30
2018-09-26T13:08:59.102Z,16.30
2018-09-26T13:11:30.692Z,16.20
2018-09-26T13:14:03.367Z,16.20
2018-09-26T13:16:35.441Z,16.40
2018-09-26T13:19:07.454Z,16.40
2018-09-26T13:21:38.719Z,16.60
2018-09-26T13:24:09.729Z,16.80
2018-09-26T13:26:42.980Z,17.00
2018-09-26T13:29:13.701Z,17.10
2018-09-26T13:31:44.896Z,17.00
2018-09-26T13:34:17.478Z,17.10
2018-09-26T13:36:48.415Z,17.30
2018-09-26T13:39:18.915Z,17.40
2018-09-26T13:41:51.111Z,17.40
2018-09-26T13:44:21.868Z,17.50
2018-09-26T13:46:52.723Z,17.60
2018-09-26T13:49:22.899Z,17.70
2018-09-26T13:51:54.647Z,17.70
2018-09-26T13:54:25.957Z,17.60
2018-09-26T13:56:56.719Z,17.90
2018-09-26T13:59:31.543Z,18.20
2018-09-26T14:02:03.336Z,18.30
2018-09-26T14:04:34.330Z,18.40
2018-09-26T14:07:11.536Z,18.50
2018-09-26T14:09:42.283Z,18.70
2018-09-26T14:12:13.906Z,18.80
2018-09-26T14:14:45.246Z,18.90
2018-09-26T14:17:20.564Z,18.80
2018-09-26T14:19:59.240Z,18.80
2018-09-26T14:22:29.739Z,18.80
2018-09-26T14:25:02.967Z,18.70
2018-09-26T14:27:34.529Z,18.70
2018-09-26T14:30:05.061Z,18.80
2018-09-26T14:32:36.566Z,18.90
2018-09-26T14:35:09.574Z,19.00
2018-09-26T14:37:40.659Z,19.10
2018-09-26T14:40:12.183Z,19.30
2018-09-26T14:42:42.925Z,19.50
2018-09-26T14:45:18.198Z,19.50
2018-09-26T14:47:50.366Z,19.50
2018-09-26T14:50:20.834Z,19.50
2018-09-26T14:52:51.549Z,19.20
2018-09-26T14:55:22.085Z,19.10
2018-09-26T14:57:52.764Z,19.00
2018-09-26T15:00:30.362Z,19.00
2018-09-26T15:03:02.173Z,18.90
2018-09-26T15:05:33.644Z,18.90
2018-09-26T15:08:04.464Z,18.90
2018-09-26T15:10:53.025Z,19.00
2018-09-26T15:13:46.789Z,19.30
2018-09-26T15:16:17.412Z,19.60
2018-09-26T15:18:49.435Z,19.80
2018-09-26T15:21:20.596Z,20.00
2018-09-26T15:23:51.385Z,20.10
2018-09-26T15:26:21.601Z,20.20
2018-09-26T15:28:53.517Z,20.30
2018-09-26T15:31:24.329Z,20.50
2018-09-26T15:33:54.556Z,20.50
2018-09-26T15:36:25.750Z,20.50
2018-09-26T15:38:57.058Z,20.20
2018-09-26T15:41:27.407Z,20.20
2018-09-26T15:44:00.300Z,20.20
2018-09-26T15:46:31.853Z,20.20
2018-09-26T15:49:04.273Z,20.20
2018-09-26T15:51:35.638Z,20.20
2018-09-26T15:54:06.186Z,20.30
2018-09-26T15:56:37.112Z,20.40
2018-09-26T15:59:07.738Z,20.30
2018-09-26T16:01:38.581Z,20.30
2018-09-26T16:04:10.088Z,20.30
2018-09-26T16:06:41.686Z,20.30
2018-09-26T16:09:12.114Z,20.20
2018-09-26T16:11:44.014Z,20.20
2018-09-26T16:14:14.797Z,20.00
2018-09-26T16:16:45.506Z,19.90
2018-09-26T16:19:17.412Z,19.80
2018-09-26T16:21:48.582Z,19.70
2018-09-26T16:24:19.391Z,19.60
2018-09-26T16:26:50.681Z,19.50
2018-09-26T16:29:22.935Z,19.40
2018-09-26T16:31:53.530Z,19.40
2018-09-26T16:34:24.432Z,19.30
2018-09-26T16:36:55.907Z,19.20
2018-09-26T16:39:26.187Z,19.20
2018-09-26T16:41:57.727Z,19.20
2018-09-26T16:44:27.555Z,19.20
2018-09-26T16:47:02.856Z,19.10
2018-09-26T16:49:34.079Z,19.10
2018-09-26T16:52:05.594Z,19.30
2018-09-26T16:54:36.256Z,19.40
2018-09-26T16:57:08.747Z,19.40
2018-09-26T16:59:39.634Z,19.40
2018-09-26T17:02:10.145Z,19.40
2018-09-26T17:04:40.760Z,19.40
2018-09-26T17:07:12.534Z,19.30
2018-09-26T17:09:43.428Z,19.20
2018-09-26T17:12:15.177Z,19.00
2018-09-26T17:14:46.772Z,18.80
2018-09-26T17:17:18.655Z,18.60
2018-09-26T17:20:04.284Z,18.30
2018-09-26T17:22:47.026Z,18.10
2018-09-26T17:25:18.620Z,17.80
2018-09-26T17:27:55.413Z,17.50
2018-09-26T17:30:26.209Z,17.30
2018-09-26T17:33:00.467Z,17.20
2018-09-26T17:35:35.239Z,17.10
2018-09-26T17:38:09.147Z,17.10
2018-09-26T17:40:39.964Z,17.10
2018-09-26T17:43:12.514Z,17.10
2018-09-26T17:45:45.220Z,17.10
2018-09-26T17:48:16.242Z,17.10
2018-09-26T17:50:47.858Z,17.10
2018-09-26T17:53:18.196Z,17.20
2018-09-26T17:55:48.822Z,17.20
2018-09-26T17:58:22.495Z,17.30
2018-09-26T18:00:54.441Z,17.30
2018-09-26T18:03:26.598Z,17.40
2018-09-26T18:06:01.325Z,17.40
2018-09-26T18:08:33.427Z,17.40
2018-09-26T18:11:04.744Z,17.40
2018-09-26T18:13:37.993Z,17.40
2018-09-26T18:16:09.184Z,17.40
2018-09-26T18:18:40.511Z,17.40
2018-09-26T18:21:12.300Z,17.40
2018-09-26T18:23:43.548Z,17.40
2018-09-26T18:26:13.864Z,17.30
2018-09-26T18:28:45.734Z,17.30
2018-09-26T18:31:18.265Z,17.20
2018-09-26T18:33:50.257Z,17.10
2018-09-26T18:36:20.951Z,17.10
2018-09-26T18:38:51.617Z,17.10
2018-09-26T18:41:23.565Z,17.10
2018-09-26T18:43:54.486Z,17.00
2018-09-26T18:46:26.124Z,16.90
2018-09-26T18:49:01.610Z,16.80
2018-09-26T18:51:32.700Z,16.80
2018-09-26T18:54:05.416Z,16.70
2018-09-26T18:56:38.879Z,16.60
2018-09-26T18:59:09.477Z,16.60
2018-09-26T19:01:40.972Z,16.50
2018-09-26T19:04:12.372Z,16.50
2018-09-26T19:06:45.394Z,16.40
2018-09-26T19:09:16.371Z,16.40
2018-09-26T19:11:50.700Z,16.30
2018-09-26T19:14:22.186Z,16.30
2018-09-26T19:16:52.752Z,16.20
2018-09-26T19:19:25.404Z,16.20
2018-09-26T19:21:56.212Z,16.10
2018-09-26T19:24:28.273Z,16.10
2018-09-26T19:27:02.522Z,16.00
2018-09-26T19:29:33.944Z,16.00
2018-09-26T19:32:04.749Z,15.90
2018-09-26T19:34:37.166Z,15.90
2018-09-26T19:37:07.787Z,15.80
2018-09-26T19:39:42.455Z,15.80
2018-09-26T19:42:13.255Z,15.80
2018-09-26T19:44:44.188Z,15.70
2018-09-26T19:47:14.687Z,15.70
2018-09-26T19:49:46.890Z,15.60
2018-09-26T19:52:18.619Z,15.60
2018-09-26T19:54:49.826Z,15.50
2018-09-26T19:57:25.869Z,15.50
2018-09-26T19:59:56.796Z,15.50
2018-09-26T20:02:32.587Z,15.50
2018-09-26T20:05:03.146Z,15.40
2018-09-26T20:07:38.854Z,15.40
2018-09-26T20:10:16.128Z,15.40
2018-09-26T20:12:48.571Z,15.40
2018-09-26T20:15:21.144Z,15.30
2018-09-26T20:17:55.420Z,15.30
2018-09-26T20:20:25.977Z,15.30
2018-09-26T20:22:59.267Z,15.30
2018-09-26T20:25:29.079Z,15.20
2018-09-26T20:27:59.443Z,15.30
2018-09-26T20:30:33.556Z,15.20
2018-09-26T20:33:04.788Z,15.20
2018-09-26T20:35:37.704Z,15.20
2018-09-26T20:38:08.818Z,15.20
2018-09-26T20:40:39.456Z,15.20
2018-09-26T20:43:09.833Z,15.20
2018-09-26T20:45:40.035Z,15.20
2018-09-26T20:48:11.812Z,15.10
2018-09-26T20:50:42.282Z,15.10
2018-09-26T20:53:14.163Z,15.10
2018-09-26T20:55:45.670Z,15.10
2018-09-26T20:58:16.758Z,15.10
2018-09-26T21:00:47.457Z,15.00
2018-09-26T21:03:17.777Z,15.00
2018-09-26T21:05:49.928Z,15.00
2018-09-26T21:08:20.472Z,15.00
2018-09-26T21:10:50.802Z,14.90
2018-09-26T21:13:21.632Z,14.90
2018-09-26T21:15:52.119Z,14.90
2018-09-26T21:18:23.886Z,14.80
2018-09-26T21:20:58.283Z,14.80
2018-09-26T21:23:30.970Z,14.70
2018-09-26T21:26:04.635Z,14.70
2018-09-26T21:28:36.182Z,14.70
2018-09-26T21:31:12.951Z,14.80
2018-09-26T21:33:43.170Z,14.70
2018-09-26T21:36:13.693Z,14.70
2018-09-26T21:38:44.823Z,14.70
2018-09-26T21:41:16.840Z,14.60
2018-09-26T21:43:48.619Z,14.50
2018-09-26T21:46:19.059Z,14.50
2018-09-26T21:48:50.852Z,14.40
2018-09-26T21:51:22.111Z,14.40
2018-09-26T21:53:53.347Z,14.30
2018-09-26T21:56:54.960Z,14.40
2018-09-26T21:59:26.077Z,14.40
2018-09-26T22:01:58.851Z,14.30
2018-09-26T22:04:30.203Z,14.30
2018-09-26T22:07:00.707Z,14.30
2018-09-26T22:09:31.967Z,14.30
2018-09-26T22:12:03.242Z,14.40
2018-09-26T22:14:33.586Z,14.40
2018-09-26T22:17:04.090Z,14.30
2018-09-26T22:19:34.683Z,14.30
2018-09-26T22:22:06.456Z,14.30
2018-09-26T22:24:39.944Z,14.30
2018-09-26T22:27:11.612Z,14.30
2018-09-26T22:29:42.085Z,14.20
2018-09-26T22:32:12.140Z,14.20
2018-09-26T22:34:42.380Z,14.20
2018-09-26T22:37:12.433Z,14.20
2018-09-26T22:39:42.517Z,14.20
2018-09-26T22:42:13.082Z,14.10
2018-09-26T22:44:43.577Z,14.10
2018-09-26T22:47:13.843Z,14.10
2018-09-26T22:49:45.184Z,14.10
2018-09-26T22:52:15.478Z,14.00
2018-09-26T22:54:45.624Z,14.00
2018-09-26T22:57:15.981Z,14.00
2018-09-26T22:59:46.300Z,14.00
2018-09-26T23:02:16.478Z,14.00
2018-09-26T23:04:46.491Z,14.00
2018-09-26T23:07:22.167Z,13.90
2018-09-26T23:09:53.096Z,13.90
2018-09-26T23:12:23.290Z,13.90
2018-09-26T23:14:53.597Z,13.90
2018-09-26T23:17:33.291Z,13.90
2018-09-26T23:20:04.518Z,13.90
2018-09-26T23:22:34.681Z,13.90
2018-09-26T23:25:05.352Z,13.90
2018-09-26T23:27:35.721Z,13.90
2018-09-26T23:30:06.348Z,13.90
2018-09-26T23:32:37.148Z,13.90
2018-09-26T23:35:07.508Z,13.90
2018-09-26T23:37:41.813Z,13.80
2018-09-26T23:40:12.107Z,13.80
2018-09-26T23:42:43.943Z,13.80
2018-09-26T23:45:14.222Z,13.80
2018-09-26T23:47:44.045Z,13.80
2018-09-26T23:50:14.567Z,13.80
2018-09-26T23:52:44.630Z,13.80
2018-09-26T23:55:14.864Z,13.80
2018-09-26T23:57:45.030Z,13.80
